sensor_id;sensor_type;location;lat;lon;timestamp;temperature;humidity
26575;DHT22;67165;50.256;10.978;2023-06-26T00:00:40;18.10;98.00
26575;DHT22;67165;50.256;10.978;2023-06-26T00:03:05;18.10;98.00
26575;DHT22;67165;50.256;10.978;2023-06-26T00:05:31;18.10;98.00
26575;DHT22;67165;50.256;10.978;2023-06-26T00:07:58;18.00;98.00
26575;DHT22;67165;50.256;10.978;2023-06-26T00:10:29;18.00;98.00
26575;DHT22;67165;50.256;10.978;2023-06-26T00:12:54;18.00;98.00
26575;DHT22;67165;50.256;10.978;2023-06-26T00:15:22;18.00;98.00
26575;DHT22;67165;50.256;10.978;2023-06-26T00:17:47;17.90;98.00
26575;DHT22;67165;50.256;10.978;2023-06-26T00:20:13;17.80;98.00
26575;DHT22;67165;50.256;10.978;2023-06-26T00:22:40;17.80;98.00
26575;DHT22;67165;50.256;10.978;2023-06-26T00:25:08;17.70;98.00
26575;DHT22;67165;50.256;10.978;2023-06-26T00:27:34;17.70;98.00
26575;DHT22;67165;50.256;10.978;2023-06-26T00:29:59;17.70;98.00
26575;DHT22;67165;50.256;10.978;2023-06-26T00:32:25;17.60;98.00
26575;DHT22;67165;50.256;10.978;2023-06-26T00:34:51;17.60;98.00
26575;DHT22;67165;50.256;10.978;2023-06-26T00:37:17;17.60;98.00
26575;DHT22;67165;50.256;10.978;2023-06-26T00:39:43;17.50;98.00
26575;DHT22;67165;50.256;10.978;2023-06-26T00:42:09;17.50;98.00
26575;DHT22;67165;50.256;10.978;2023-06-26T00:44:34;17.50;98.00
26575;DHT22;67165;50.256;10.978;2023-06-26T00:47:00;17.40;98.00
26575;DHT22;67165;50.256;10.978;2023-06-26T00:49:26;17.40;98.00
26575;DHT22;67165;50.256;10.978;2023-06-26T00:51:53;17.40;98.00
26575;DHT22;67165;50.256;10.978;2023-06-26T00:54:19;17.30;98.00
26575;DHT22;67165;50.256;10.978;2023-06-26T00:56:46;17.30;98.00
26575;DHT22;67165;50.256;10.978;2023-06-26T00:59:15;17.30;98.00
26575;DHT22;67165;50.256;10.978;2023-06-26T01:01:41;17.20;98.00
26575;DHT22;67165;50.256;10.978;2023-06-26T01:04:06;17.20;98.00
26575;DHT22;67165;50.256;10.978;2023-06-26T01:06:33;17.20;98.00
26575;DHT22;67165;50.256;10.978;2023-06-26T01:09:03;17.10;98.00
26575;DHT22;67165;50.256;10.978;2023-06-26T01:11:28;17.10;98.00
26575;DHT22;67165;50.256;10.978;2023-06-26T01:13:54;17.00;98.00
26575;DHT22;67165;50.256;10.978;2023-06-26T01:16:24;17.00;98.00
26575;DHT22;67165;50.256;10.978;2023-06-26T01:18:50;17.00;98.00
26575;DHT22;67165;50.256;10.978;2023-06-26T01:21:17;17.00;98.00
26575;DHT22;67165;50.256;10.978;2023-06-26T01:24:07;17.00;98.00
26575;DHT22;67165;50.256;10.978;2023-06-26T01:26:35;16.90;98.00
26575;DHT22;67165;50.256;10.978;2023-06-26T01:29:03;16.90;98.00
26575;DHT22;67165;50.256;10.978;2023-06-26T01:31:31;16.90;98.00
26575;DHT22;67165;50.256;10.978;2023-06-26T01:34:00;16.80;98.00
26575;DHT22;67165;50.256;10.978;2023-06-26T01:36:26;16.80;98.00
26575;DHT22;67165;50.256;10.978;2023-06-26T01:38:54;16.80;98.00
26575;DHT22;67165;50.256;10.978;2023-06-26T01:41:19;16.80;98.00
26575;DHT22;67165;50.256;10.978;2023-06-26T01:44:11;16.70;98.00
26575;DHT22;67165;50.256;10.978;2023-06-26T01:47:01;16.70;98.00
26575;DHT22;67165;50.256;10.978;2023-06-26T01:54:57;16.60;98.00
26575;DHT22;67165;50.256;10.978;2023-06-26T01:57:26;16.60;98.00
26575;DHT22;67165;50.256;10.978;2023-06-26T01:59:54;16.50;98.00
26575;DHT22;67165;50.256;10.978;2023-06-26T02:02:23;16.50;98.00
26575;DHT22;67165;50.256;10.978;2023-06-26T02:04:49;16.40;98.00
26575;DHT22;67165;50.256;10.978;2023-06-26T02:07:15;16.40;98.00
26575;DHT22;67165;50.256;10.978;2023-06-26T02:09:41;16.40;98.00
26575;DHT22;67165;50.256;10.978;2023-06-26T02:12:07;16.30;98.00
26575;DHT22;67165;50.256;10.978;2023-06-26T02:14:33;16.30;98.00
26575;DHT22;67165;50.256;10.978;2023-06-26T02:16:58;16.30;98.00
26575;DHT22;67165;50.256;10.978;2023-06-26T02:19:26;16.30;98.00
26575;DHT22;67165;50.256;10.978;2023-06-26T02:21:55;16.30;98.00
26575;DHT22;67165;50.256;10.978;2023-06-26T02:24:21;16.20;98.00
26575;DHT22;67165;50.256;10.978;2023-06-26T02:26:47;16.20;98.00
26575;DHT22;67165;50.256;10.978;2023-06-26T02:29:14;16.20;98.00
26575;DHT22;67165;50.256;10.978;2023-06-26T02:31:40;16.10;98.00
26575;DHT22;67165;50.256;10.978;2023-06-26T02:34:06;16.10;98.00
26575;DHT22;67165;50.256;10.978;2023-06-26T02:36:32;16.10;98.00
26575;DHT22;67165;50.256;10.978;2023-06-26T02:38:57;16.10;98.00
26575;DHT22;67165;50.256;10.978;2023-06-26T02:41:23;16.10;98.00
26575;DHT22;67165;50.256;10.978;2023-06-26T02:43:49;16.10;98.00
26575;DHT22;67165;50.256;10.978;2023-06-26T02:46:15;16.00;98.00
26575;DHT22;67165;50.256;10.978;2023-06-26T02:48:40;15.90;98.00
26575;DHT22;67165;50.256;10.978;2023-06-26T02:51:07;15.90;98.00
26575;DHT22;67165;50.256;10.978;2023-06-26T02:53:33;15.90;98.00
26575;DHT22;67165;50.256;10.978;2023-06-26T02:55:59;15.90;98.00
26575;DHT22;67165;50.256;10.978;2023-06-26T02:58:24;15.90;98.00
26575;DHT22;67165;50.256;10.978;2023-06-26T03:00:50;15.80;98.00
26575;DHT22;67165;50.256;10.978;2023-06-26T03:03:16;15.80;98.00
26575;DHT22;67165;50.256;10.978;2023-06-26T03:05:42;15.80;98.00
26575;DHT22;67165;50.256;10.978;2023-06-26T03:08:08;15.80;98.00
26575;DHT22;67165;50.256;10.978;2023-06-26T03:10:36;15.80;98.00
26575;DHT22;67165;50.256;10.978;2023-06-26T03:13:01;15.80;98.00
26575;DHT22;67165;50.256;10.978;2023-06-26T03:15:27;15.80;98.00
26575;DHT22;67165;50.256;10.978;2023-06-26T03:17:53;15.80;98.00
26575;DHT22;67165;50.256;10.978;2023-06-26T03:20:18;15.80;98.00
26575;DHT22;67165;50.256;10.978;2023-06-26T03:22:44;15.80;98.00
26575;DHT22;67165;50.256;10.978;2023-06-26T03:25:10;15.80;98.00
26575;DHT22;67165;50.256;10.978;2023-06-26T03:27:35;15.80;98.00
26575;DHT22;67165;50.256;10.978;2023-06-26T03:30:01;15.80;98.00
26575;DHT22;67165;50.256;10.978;2023-06-26T03:32:29;15.80;98.00
26575;DHT22;67165;50.256;10.978;2023-06-26T03:34:55;15.70;98.00
26575;DHT22;67165;50.256;10.978;2023-06-26T03:37:21;15.80;98.00
26575;DHT22;67165;50.256;10.978;2023-06-26T03:39:49;15.80;98.00
26575;DHT22;67165;50.256;10.978;2023-06-26T03:42:15;15.80;98.00
26575;DHT22;67165;50.256;10.978;2023-06-26T03:44:40;15.80;98.00
26575;DHT22;67165;50.256;10.978;2023-06-26T03:47:06;15.90;98.00
26575;DHT22;67165;50.256;10.978;2023-06-26T03:49:32;15.90;98.00
26575;DHT22;67165;50.256;10.978;2023-06-26T03:51:57;15.80;98.00
26575;DHT22;67165;50.256;10.978;2023-06-26T03:54:23;15.80;98.00
26575;DHT22;67165;50.256;10.978;2023-06-26T03:56:48;15.80;98.00
26575;DHT22;67165;50.256;10.978;2023-06-26T03:59:15;15.80;98.00
26575;DHT22;67165;50.256;10.978;2023-06-26T04:01:40;15.90;98.00
26575;DHT22;67165;50.256;10.978;2023-06-26T04:04:07;15.90;98.00
26575;DHT22;67165;50.256;10.978;2023-06-26T04:06:33;16.00;98.00
26575;DHT22;67165;50.256;10.978;2023-06-26T04:08:59;16.20;98.00
26575;DHT22;67165;50.256;10.978;2023-06-26T04:11:25;16.80;98.00
26575;DHT22;67165;50.256;10.978;2023-06-26T04:13:51;17.30;98.00
26575;DHT22;67165;50.256;10.978;2023-06-26T04:16:16;18.00;98.00
26575;DHT22;67165;50.256;10.978;2023-06-26T04:18:42;18.60;98.00
26575;DHT22;67165;50.256;10.978;2023-06-26T04:21:10;19.20;98.00
26575;DHT22;67165;50.256;10.978;2023-06-26T04:23:37;19.60;98.00
26575;DHT22;67165;50.256;10.978;2023-06-26T04:26:06;20.20;98.00
26575;DHT22;67165;50.256;10.978;2023-06-26T04:28:33;20.70;98.00
26575;DHT22;67165;50.256;10.978;2023-06-26T04:31:00;21.20;98.00
26575;DHT22;67165;50.256;10.978;2023-06-26T04:33:26;21.40;98.00
26575;DHT22;67165;50.256;10.978;2023-06-26T04:35:53;22.00;98.00
26575;DHT22;67165;50.256;10.978;2023-06-26T04:38:20;22.30;98.00
26575;DHT22;67165;50.256;10.978;2023-06-26T04:40:48;22.10;98.00
26575;DHT22;67165;50.256;10.978;2023-06-26T04:43:14;22.40;98.00
26575;DHT22;67165;50.256;10.978;2023-06-26T04:45:39;22.70;98.00
26575;DHT22;67165;50.256;10.978;2023-06-26T04:48:05;22.70;98.00
26575;DHT22;67165;50.256;10.978;2023-06-26T04:50:34;22.90;98.00
26575;DHT22;67165;50.256;10.978;2023-06-26T04:53:01;23.00;98.00
26575;DHT22;67165;50.256;10.978;2023-06-26T04:55:27;23.40;98.00
26575;DHT22;67165;50.256;10.978;2023-06-26T04:57:54;23.60;98.00
26575;DHT22;67165;50.256;10.978;2023-06-26T05:00:19;23.60;98.00
26575;DHT22;67165;50.256;10.978;2023-06-26T05:02:45;23.50;98.00
26575;DHT22;67165;50.256;10.978;2023-06-26T05:05:11;23.60;98.00
26575;DHT22;67165;50.256;10.978;2023-06-26T05:07:37;23.80;98.00
26575;DHT22;67165;50.256;10.978;2023-06-26T05:10:03;24.20;98.00
26575;DHT22;67165;50.256;10.978;2023-06-26T05:12:29;24.50;98.00
26575;DHT22;67165;50.256;10.978;2023-06-26T05:14:54;24.40;98.00
26575;DHT22;67165;50.256;10.978;2023-06-26T05:17:20;24.60;98.00
26575;DHT22;67165;50.256;10.978;2023-06-26T05:19:47;24.80;98.00
26575;DHT22;67165;50.256;10.978;2023-06-26T05:22:13;24.80;98.00
26575;DHT22;67165;50.256;10.978;2023-06-26T05:24:39;24.60;98.00
26575;DHT22;67165;50.256;10.978;2023-06-26T05:27:06;24.60;98.00
26575;DHT22;67165;50.256;10.978;2023-06-26T05:29:32;24.50;98.00
26575;DHT22;67165;50.256;10.978;2023-06-26T05:31:59;24.30;98.00
26575;DHT22;67165;50.256;10.978;2023-06-26T05:34:25;24.30;98.00
26575;DHT22;67165;50.256;10.978;2023-06-26T05:36:55;24.20;98.00
26575;DHT22;67165;50.256;10.978;2023-06-26T05:39:23;24.20;98.00
26575;DHT22;67165;50.256;10.978;2023-06-26T05:41:51;24.10;98.00
26575;DHT22;67165;50.256;10.978;2023-06-26T05:44:17;23.90;98.00
26575;DHT22;67165;50.256;10.978;2023-06-26T05:46:43;23.70;98.00
26575;DHT22;67165;50.256;10.978;2023-06-26T05:49:09;23.70;98.00
26575;DHT22;67165;50.256;10.978;2023-06-26T05:51:35;24.00;98.00
26575;DHT22;67165;50.256;10.978;2023-06-26T05:54:01;24.00;98.00
26575;DHT22;67165;50.256;10.978;2023-06-26T05:56:28;24.10;98.00
26575;DHT22;67165;50.256;10.978;2023-06-26T05:58:54;24.20;98.00
26575;DHT22;67165;50.256;10.978;2023-06-26T06:01:20;24.10;98.00
26575;DHT22;67165;50.256;10.978;2023-06-26T06:03:46;24.50;98.00
26575;DHT22;67165;50.256;10.978;2023-06-26T06:06:12;24.50;98.00
26575;DHT22;67165;50.256;10.978;2023-06-26T06:08:38;24.60;98.00
26575;DHT22;67165;50.256;10.978;2023-06-26T06:11:03;24.70;98.00
26575;DHT22;67165;50.256;10.978;2023-06-26T06:13:31;24.80;98.00
26575;DHT22;67165;50.256;10.978;2023-06-26T06:15:58;24.90;98.00
26575;DHT22;67165;50.256;10.978;2023-06-26T06:18:25;25.20;98.00
26575;DHT22;67165;50.256;10.978;2023-06-26T06:20:51;25.30;98.00
26575;DHT22;67165;50.256;10.978;2023-06-26T06:23:17;25.40;98.00
26575;DHT22;67165;50.256;10.978;2023-06-26T06:25:42;25.70;98.00
26575;DHT22;67165;50.256;10.978;2023-06-26T06:28:08;25.60;98.00
26575;DHT22;67165;50.256;10.978;2023-06-26T06:30:34;25.70;98.00
26575;DHT22;67165;50.256;10.978;2023-06-26T06:32:59;25.90;98.00
26575;DHT22;67165;50.256;10.978;2023-06-26T06:35:25;26.30;98.00
26575;DHT22;67165;50.256;10.978;2023-06-26T06:37:51;26.50;98.00
26575;DHT22;67165;50.256;10.978;2023-06-26T06:40:17;26.60;98.00
26575;DHT22;67165;50.256;10.978;2023-06-26T06:42:42;26.80;98.00
26575;DHT22;67165;50.256;10.978;2023-06-26T06:45:09;27.00;98.00
26575;DHT22;67165;50.256;10.978;2023-06-26T06:47:34;27.20;98.00
26575;DHT22;67165;50.256;10.978;2023-06-26T06:50:01;27.20;98.00
26575;DHT22;67165;50.256;10.978;2023-06-26T06:52:37;27.50;98.00
26575;DHT22;67165;50.256;10.978;2023-06-26T06:55:04;27.80;98.00
26575;DHT22;67165;50.256;10.978;2023-06-26T06:57:35;28.00;98.00
26575;DHT22;67165;50.256;10.978;2023-06-26T07:00:07;27.80;98.00
26575;DHT22;67165;50.256;10.978;2023-06-26T07:02:40;28.10;97.40
26575;DHT22;67165;50.256;10.978;2023-06-26T07:05:06;28.00;97.40
26575;DHT22;67165;50.256;10.978;2023-06-26T07:07:33;27.80;96.10
26575;DHT22;67165;50.256;10.978;2023-06-26T07:10:13;27.90;98.00
26575;DHT22;67165;50.256;10.978;2023-06-26T07:12:40;27.70;97.00
26575;DHT22;67165;50.256;10.978;2023-06-26T07:15:06;28.20;95.90
26575;DHT22;67165;50.256;10.978;2023-06-26T07:17:33;28.50;95.30
26575;DHT22;67165;50.256;10.978;2023-06-26T07:20:00;28.30;95.10
26575;DHT22;67165;50.256;10.978;2023-06-26T07:22:26;28.40;96.00
26575;DHT22;67165;50.256;10.978;2023-06-26T07:24:52;28.80;95.50
26575;DHT22;67165;50.256;10.978;2023-06-26T07:27:18;29.00;95.10
26575;DHT22;67165;50.256;10.978;2023-06-26T07:29:45;29.20;93.90
26575;DHT22;67165;50.256;10.978;2023-06-26T07:32:11;29.10;91.90
26575;DHT22;67165;50.256;10.978;2023-06-26T07:34:36;28.80;93.60
26575;DHT22;67165;50.256;10.978;2023-06-26T07:37:04;28.90;92.10
26575;DHT22;67165;50.256;10.978;2023-06-26T07:39:30;29.00;91.30
26575;DHT22;67165;50.256;10.978;2023-06-26T07:41:56;29.20;93.20
26575;DHT22;67165;50.256;10.978;2023-06-26T07:44:25;29.40;93.80
26575;DHT22;67165;50.256;10.978;2023-06-26T07:46:52;29.50;90.40
26575;DHT22;67165;50.256;10.978;2023-06-26T07:49:17;29.40;89.80
26575;DHT22;67165;50.256;10.978;2023-06-26T07:51:43;29.10;90.40
26575;DHT22;67165;50.256;10.978;2023-06-26T07:54:09;28.60;91.40
26575;DHT22;67165;50.256;10.978;2023-06-26T07:56:54;29.00;92.90
26575;DHT22;67165;50.256;10.978;2023-06-26T07:59:20;28.50;90.70
26575;DHT22;67165;50.256;10.978;2023-06-26T08:01:54;28.80;92.30
26575;DHT22;67165;50.256;10.978;2023-06-26T08:04:20;29.30;90.30
26575;DHT22;67165;50.256;10.978;2023-06-26T08:06:55;29.30;90.40
26575;DHT22;67165;50.256;10.978;2023-06-26T08:09:24;29.40;89.20
26575;DHT22;67165;50.256;10.978;2023-06-26T08:11:50;29.20;89.40
26575;DHT22;67165;50.256;10.978;2023-06-26T08:14:16;29.60;89.10
26575;DHT22;67165;50.256;10.978;2023-06-26T08:16:43;30.00;90.00
26575;DHT22;67165;50.256;10.978;2023-06-26T08:19:12;30.10;89.90
26575;DHT22;67165;50.256;10.978;2023-06-26T08:21:39;30.10;88.60
26575;DHT22;67165;50.256;10.978;2023-06-26T08:24:05;30.00;90.80
26575;DHT22;67165;50.256;10.978;2023-06-26T08:26:31;30.50;88.30
26575;DHT22;67165;50.256;10.978;2023-06-26T08:28:57;30.80;87.40
26575;DHT22;67165;50.256;10.978;2023-06-26T08:31:22;30.30;86.60
26575;DHT22;67165;50.256;10.978;2023-06-26T08:33:48;30.90;89.40
26575;DHT22;67165;50.256;10.978;2023-06-26T08:36:14;31.00;86.40
26575;DHT22;67165;50.256;10.978;2023-06-26T08:38:40;30.70;88.00
26575;DHT22;67165;50.256;10.978;2023-06-26T08:41:07;31.20;88.00
26575;DHT22;67165;50.256;10.978;2023-06-26T08:43:33;31.10;86.70
26575;DHT22;67165;50.256;10.978;2023-06-26T08:45:59;31.50;86.60
26575;DHT22;67165;50.256;10.978;2023-06-26T08:48:25;31.70;87.40
26575;DHT22;67165;50.256;10.978;2023-06-26T08:50:53;31.60;85.80
26575;DHT22;67165;50.256;10.978;2023-06-26T08:56:10;32.10;86.20
26575;DHT22;67165;50.256;10.978;2023-06-26T08:58:37;32.40;83.80
26575;DHT22;67165;50.256;10.978;2023-06-26T09:01:04;32.30;85.00
26575;DHT22;67165;50.256;10.978;2023-06-26T09:03:31;32.10;85.50
26575;DHT22;67165;50.256;10.978;2023-06-26T09:05:57;31.90;85.30
26575;DHT22;67165;50.256;10.978;2023-06-26T09:08:22;31.90;87.90
26575;DHT22;67165;50.256;10.978;2023-06-26T09:10:48;31.90;84.60
26575;DHT22;67165;50.256;10.978;2023-06-26T09:13:14;31.60;84.90
26575;DHT22;67165;50.256;10.978;2023-06-26T09:15:43;31.50;85.60
26575;DHT22;67165;50.256;10.978;2023-06-26T09:18:09;30.90;86.10
26575;DHT22;67165;50.256;10.978;2023-06-26T09:20:35;30.70;88.60
26575;DHT22;67165;50.256;10.978;2023-06-26T09:23:01;30.20;89.90
26575;DHT22;67165;50.256;10.978;2023-06-26T09:25:31;30.60;89.50
26575;DHT22;67165;50.256;10.978;2023-06-26T09:27:57;31.10;89.90
26575;DHT22;67165;50.256;10.978;2023-06-26T09:30:23;31.40;86.50
26575;DHT22;67165;50.256;10.978;2023-06-26T09:32:49;31.60;85.70
26575;DHT22;67165;50.256;10.978;2023-06-26T09:35:20;31.50;84.70
26575;DHT22;67165;50.256;10.978;2023-06-26T09:37:47;31.10;84.70
26575;DHT22;67165;50.256;10.978;2023-06-26T09:40:14;31.20;86.70
26575;DHT22;67165;50.256;10.978;2023-06-26T09:42:41;31.20;86.00
26575;DHT22;67165;50.256;10.978;2023-06-26T09:45:06;31.30;87.60
26575;DHT22;67165;50.256;10.978;2023-06-26T09:47:34;31.30;85.50
26575;DHT22;67165;50.256;10.978;2023-06-26T09:50:00;31.40;84.70
26575;DHT22;67165;50.256;10.978;2023-06-26T09:52:28;31.10;85.50
26575;DHT22;67165;50.256;10.978;2023-06-26T09:55:09;31.10;85.80
26575;DHT22;67165;50.256;10.978;2023-06-26T09:57:35;31.20;86.60
26575;DHT22;67165;50.256;10.978;2023-06-26T10:00:05;31.00;86.70
26575;DHT22;67165;50.256;10.978;2023-06-26T10:02:33;31.00;86.70
26575;DHT22;67165;50.256;10.978;2023-06-26T10:04:59;30.30;87.60
26575;DHT22;67165;50.256;10.978;2023-06-26T10:07:25;30.60;85.90
26575;DHT22;67165;50.256;10.978;2023-06-26T10:09:51;30.80;87.40
26575;DHT22;67165;50.256;10.978;2023-06-26T10:12:29;31.00;86.80
26575;DHT22;67165;50.256;10.978;2023-06-26T10:14:58;31.30;86.00
26575;DHT22;67165;50.256;10.978;2023-06-26T10:17:28;31.40;87.10
26575;DHT22;67165;50.256;10.978;2023-06-26T10:19:58;31.50;87.50
26575;DHT22;67165;50.256;10.978;2023-06-26T10:22:29;31.30;88.10
26575;DHT22;67165;50.256;10.978;2023-06-26T10:24:59;31.40;85.50
26575;DHT22;67165;50.256;10.978;2023-06-26T10:27:29;31.30;84.70
26575;DHT22;67165;50.256;10.978;2023-06-26T10:30:03;31.40;85.70
26575;DHT22;67165;50.256;10.978;2023-06-26T10:32:32;31.40;86.60
26575;DHT22;67165;50.256;10.978;2023-06-26T10:34:58;31.30;85.10
26575;DHT22;67165;50.256;10.978;2023-06-26T10:37:45;31.20;85.80
26575;DHT22;67165;50.256;10.978;2023-06-26T10:40:12;31.20;83.00
26575;DHT22;67165;50.256;10.978;2023-06-26T10:42:40;31.20;81.10
26575;DHT22;67165;50.256;10.978;2023-06-26T10:45:14;31.30;81.70
26575;DHT22;67165;50.256;10.978;2023-06-26T10:47:40;31.20;78.80
26575;DHT22;67165;50.256;10.978;2023-06-26T10:50:20;31.20;79.40
26575;DHT22;67165;50.256;10.978;2023-06-26T10:52:46;31.30;78.90
26575;DHT22;67165;50.256;10.978;2023-06-26T10:55:31;31.40;79.50
26575;DHT22;67165;50.256;10.978;2023-06-26T10:57:57;31.30;80.40
26575;DHT22;67165;50.256;10.978;2023-06-26T11:00:23;31.30;82.20
26575;DHT22;67165;50.256;10.978;2023-06-26T11:02:52;31.30;79.00
26575;DHT22;67165;50.256;10.978;2023-06-26T11:05:33;31.30;80.70
26575;DHT22;67165;50.256;10.978;2023-06-26T11:08:06;31.40;79.50
26575;DHT22;67165;50.256;10.978;2023-06-26T11:10:51;31.30;79.90
26575;DHT22;67165;50.256;10.978;2023-06-26T11:13:18;31.20;79.00
26575;DHT22;67165;50.256;10.978;2023-06-26T11:15:45;31.20;79.80
26575;DHT22;67165;50.256;10.978;2023-06-26T11:18:12;31.20;81.80
26575;DHT22;67165;50.256;10.978;2023-06-26T11:20:38;31.00;79.40
26575;DHT22;67165;50.256;10.978;2023-06-26T11:23:08;31.20;83.20
26575;DHT22;67165;50.256;10.978;2023-06-26T11:25:38;31.20;82.80
26575;DHT22;67165;50.256;10.978;2023-06-26T11:28:05;31.50;80.40
26575;DHT22;67165;50.256;10.978;2023-06-26T11:30:31;31.60;80.00
26575;DHT22;67165;50.256;10.978;2023-06-26T11:33:04;31.50;80.50
26575;DHT22;67165;50.256;10.978;2023-06-26T11:35:30;31.40;81.40
26575;DHT22;67165;50.256;10.978;2023-06-26T11:37:57;31.50;82.50
26575;DHT22;67165;50.256;10.978;2023-06-26T11:40:25;31.50;81.80
26575;DHT22;67165;50.256;10.978;2023-06-26T11:42:55;31.60;80.20
26575;DHT22;67165;50.256;10.978;2023-06-26T11:45:20;31.60;79.80
26575;DHT22;67165;50.256;10.978;2023-06-26T11:47:46;31.70;80.00
26575;DHT22;67165;50.256;10.978;2023-06-26T11:50:16;31.70;80.60
26575;DHT22;67165;50.256;10.978;2023-06-26T11:52:43;31.70;80.70
26575;DHT22;67165;50.256;10.978;2023-06-26T11:55:09;31.70;78.80
26575;DHT22;67165;50.256;10.978;2023-06-26T11:57:37;31.50;79.30
26575;DHT22;67165;50.256;10.978;2023-06-26T12:00:11;31.40;81.70
26575;DHT22;67165;50.256;10.978;2023-06-26T12:02:37;31.40;81.00
26575;DHT22;67165;50.256;10.978;2023-06-26T12:05:04;31.50;81.70
26575;DHT22;67165;50.256;10.978;2023-06-26T12:07:31;31.60;80.60
26575;DHT22;67165;50.256;10.978;2023-06-26T12:09:57;31.80;82.60
26575;DHT22;67165;50.256;10.978;2023-06-26T12:12:24;31.80;82.10
26575;DHT22;67165;50.256;10.978;2023-06-26T12:14:51;31.90;80.00
26575;DHT22;67165;50.256;10.978;2023-06-26T12:17:17;32.00;80.90
26575;DHT22;67165;50.256;10.978;2023-06-26T12:19:48;32.20;80.00
26575;DHT22;67165;50.256;10.978;2023-06-26T12:22:16;32.40;77.00
26575;DHT22;67165;50.256;10.978;2023-06-26T12:24:42;32.40;77.90
26575;DHT22;67165;50.256;10.978;2023-06-26T12:27:10;32.50;75.80
26575;DHT22;67165;50.256;10.978;2023-06-26T12:29:38;32.70;78.50
26575;DHT22;67165;50.256;10.978;2023-06-26T12:32:08;32.60;79.40
26575;DHT22;67165;50.256;10.978;2023-06-26T12:34:37;32.60;77.10
26575;DHT22;67165;50.256;10.978;2023-06-26T12:37:13;32.60;75.10
26575;DHT22;67165;50.256;10.978;2023-06-26T12:42:19;32.50;75.60
26575;DHT22;67165;50.256;10.978;2023-06-26T12:44:46;32.50;78.70
26575;DHT22;67165;50.256;10.978;2023-06-26T12:47:15;32.60;75.60
26575;DHT22;67165;50.256;10.978;2023-06-26T12:49:42;32.40;76.50
26575;DHT22;67165;50.256;10.978;2023-06-26T12:52:11;32.20;77.70
26575;DHT22;67165;50.256;10.978;2023-06-26T12:54:39;31.90;79.40
26575;DHT22;67165;50.256;10.978;2023-06-26T12:57:06;32.00;78.40
26575;DHT22;67165;50.256;10.978;2023-06-26T12:59:33;32.00;78.80
26575;DHT22;67165;50.256;10.978;2023-06-26T13:02:00;31.80;78.10
26575;DHT22;67165;50.256;10.978;2023-06-26T13:04:25;31.90;79.90
26575;DHT22;67165;50.256;10.978;2023-06-26T13:06:51;32.10;78.90
26575;DHT22;67165;50.256;10.978;2023-06-26T13:09:20;32.20;78.20
26575;DHT22;67165;50.256;10.978;2023-06-26T13:11:45;32.20;79.20
26575;DHT22;67165;50.256;10.978;2023-06-26T13:14:11;32.30;80.10
26575;DHT22;67165;50.256;10.978;2023-06-26T13:16:39;32.20;78.30
26575;DHT22;67165;50.256;10.978;2023-06-26T13:19:05;32.10;79.10
26575;DHT22;67165;50.256;10.978;2023-06-26T13:21:33;32.10;79.40
26575;DHT22;67165;50.256;10.978;2023-06-26T13:23:59;32.20;80.50
26575;DHT22;67165;50.256;10.978;2023-06-26T13:26:25;32.30;80.00
26575;DHT22;67165;50.256;10.978;2023-06-26T13:28:52;32.30;79.40
26575;DHT22;67165;50.256;10.978;2023-06-26T13:31:18;32.20;78.50
26575;DHT22;67165;50.256;10.978;2023-06-26T13:33:44;32.30;79.00
26575;DHT22;67165;50.256;10.978;2023-06-26T13:36:14;32.40;78.60
26575;DHT22;67165;50.256;10.978;2023-06-26T13:38:41;32.10;78.80
26575;DHT22;67165;50.256;10.978;2023-06-26T13:41:06;31.90;78.60
26575;DHT22;67165;50.256;10.978;2023-06-26T13:43:33;31.50;80.80
26575;DHT22;67165;50.256;10.978;2023-06-26T13:46:00;31.20;81.10
26575;DHT22;67165;50.256;10.978;2023-06-26T13:48:26;31.10;81.50
26575;DHT22;67165;50.256;10.978;2023-06-26T13:50:52;31.00;82.00
26575;DHT22;67165;50.256;10.978;2023-06-26T13:53:17;31.00;82.90
26575;DHT22;67165;50.256;10.978;2023-06-26T13:55:43;31.00;84.10
26575;DHT22;67165;50.256;10.978;2023-06-26T13:58:10;31.00;84.90
26575;DHT22;67165;50.256;10.978;2023-06-26T14:00:37;30.90;83.90
26575;DHT22;67165;50.256;10.978;2023-06-26T14:03:05;30.80;84.60
26575;DHT22;67165;50.256;10.978;2023-06-26T14:05:35;30.80;85.10
26575;DHT22;67165;50.256;10.978;2023-06-26T14:08:07;30.70;85.90
26575;DHT22;67165;50.256;10.978;2023-06-26T14:10:33;30.60;86.20
26575;DHT22;67165;50.256;10.978;2023-06-26T14:12:59;30.50;86.50
26575;DHT22;67165;50.256;10.978;2023-06-26T14:15:25;30.50;86.10
26575;DHT22;67165;50.256;10.978;2023-06-26T14:17:51;30.50;86.80
26575;DHT22;67165;50.256;10.978;2023-06-26T14:20:17;30.60;87.40
26575;DHT22;67165;50.256;10.978;2023-06-26T14:22:46;30.80;87.00
26575;DHT22;67165;50.256;10.978;2023-06-26T14:25:13;31.00;86.20
26575;DHT22;67165;50.256;10.978;2023-06-26T14:27:39;31.10;86.30
26575;DHT22;67165;50.256;10.978;2023-06-26T14:30:06;31.20;86.30
26575;DHT22;67165;50.256;10.978;2023-06-26T14:32:35;31.30;87.20
26575;DHT22;67165;50.256;10.978;2023-06-26T14:35:03;31.30;87.40
26575;DHT22;67165;50.256;10.978;2023-06-26T14:37:29;31.30;86.50
26575;DHT22;67165;50.256;10.978;2023-06-26T14:39:56;31.30;85.10
26575;DHT22;67165;50.256;10.978;2023-06-26T14:42:21;31.20;85.20
26575;DHT22;67165;50.256;10.978;2023-06-26T14:44:47;31.30;85.90
26575;DHT22;67165;50.256;10.978;2023-06-26T14:47:16;31.20;85.60
26575;DHT22;67165;50.256;10.978;2023-06-26T14:49:41;31.10;85.80
26575;DHT22;67165;50.256;10.978;2023-06-26T14:52:08;31.10;85.60
26575;DHT22;67165;50.256;10.978;2023-06-26T14:54:35;31.00;84.80
26575;DHT22;67165;50.256;10.978;2023-06-26T14:57:06;30.90;86.00
26575;DHT22;67165;50.256;10.978;2023-06-26T14:59:33;30.90;85.70
26575;DHT22;67165;50.256;10.978;2023-06-26T15:01:59;30.80;86.30
26575;DHT22;67165;50.256;10.978;2023-06-26T15:04:24;30.70;87.30
26575;DHT22;67165;50.256;10.978;2023-06-26T15:06:50;30.60;88.50
26575;DHT22;67165;50.256;10.978;2023-06-26T15:09:16;30.60;88.70
26575;DHT22;67165;50.256;10.978;2023-06-26T15:11:41;30.50;89.00
26575;DHT22;67165;50.256;10.978;2023-06-26T15:14:08;30.40;89.30
26575;DHT22;67165;50.256;10.978;2023-06-26T15:16:33;30.40;89.30
26575;DHT22;67165;50.256;10.978;2023-06-26T15:18:59;30.30;89.20
26575;DHT22;67165;50.256;10.978;2023-06-26T15:21:25;30.20;90.90
26575;DHT22;67165;50.256;10.978;2023-06-26T15:23:51;30.10;91.20
26575;DHT22;67165;50.256;10.978;2023-06-26T15:26:17;30.10;90.90